createdAt,value
2022-08-02T00:01:31.697Z,13.52
2022-08-02T00:04:02.825Z,13.48
2022-08-02T00:06:35.745Z,13.44
2022-08-02T00:09:08.139Z,13.35
2022-08-02T00:11:40.407Z,13.34
2022-08-02T00:14:15.239Z,13.33
2022-08-02T00:16:44.688Z,13.26
2022-08-02T00:19:14.254Z,13.17
2022-08-02T00:21:46.900Z,13.08
2022-08-02T00:24:29.763Z,13.08
2022-08-02T00:27:00.839Z,12.97
2022-08-02T00:29:34.832Z,12.94
2022-08-02T00:32:12.832Z,12.91
2022-08-02T00:34:42.765Z,13.02
2022-08-02T00:37:11.805Z,13.07
2022-08-02T00:39:40.775Z,13.23
2022-08-02T00:42:11.464Z,13.31
2022-08-02T00:44:42.488Z,13.32
2022-08-02T00:47:11.611Z,13.34
2022-08-02T00:49:52.492Z,13.35
2022-08-02T00:52:25.424Z,13.28
2022-08-02T00:54:57.647Z,13.15
2022-08-02T00:57:26.769Z,12.88
2022-08-02T00:59:57.297Z,12.67
2022-08-02T01:02:26.737Z,12.62
2022-08-02T01:04:55.801Z,12.57
2022-08-02T01:07:24.653Z,12.44
2022-08-02T01:09:53.780Z,12.19
2022-08-02T01:12:23.207Z,11.89
2022-08-02T01:14:57.351Z,11.68
2022-08-02T01:17:40.684Z,11.50
2022-08-02T01:20:29.464Z,11.37
2022-08-02T01:23:27.155Z,11.28
2022-08-02T01:26:21.219Z,11.24
2022-08-02T01:29:01.579Z,11.26
2022-08-02T01:31:37.552Z,11.22
2022-08-02T01:34:15.015Z,11.10
2022-08-02T01:36:53.558Z,11.02
2022-08-02T01:39:32.315Z,10.97
2022-08-02T01:42:03.759Z,10.90
2022-08-02T01:44:45.804Z,10.81
2022-08-02T01:47:22.977Z,10.74
2022-08-02T01:49:59.090Z,10.70
2022-08-02T01:52:33.569Z,10.65
2022-08-02T01:55:18.986Z,10.56
2022-08-02T01:57:54.204Z,10.49
2022-08-02T02:00:34.274Z,10.35
2022-08-02T02:03:08.151Z,10.21
2022-08-02T02:05:41.145Z,10.07
2022-08-02T02:08:13.056Z,9.96
2022-08-02T02:10:44.648Z,9.85
2022-08-02T02:13:18.726Z,9.77
2022-08-02T02:15:52.441Z,9.71
2022-08-02T02:18:28.649Z,9.60
2022-08-02T02:21:00.242Z,9.52
2022-08-02T02:23:33.397Z,9.43
2022-08-02T02:26:07.596Z,9.34
2022-08-02T02:28:48.616Z,9.29
2022-08-02T02:31:22.835Z,9.24
2022-08-02T02:34:00.164Z,9.22
2022-08-02T02:36:33.269Z,9.21
2022-08-02T02:39:13.051Z,9.18
2022-08-02T02:41:45.474Z,9.06
2022-08-02T02:44:21.577Z,9.02
2022-08-02T02:46:56.116Z,8.96
2022-08-02T02:49:27.972Z,8.95
2022-08-02T02:52:00.173Z,8.83
2022-08-02T02:54:35.457Z,8.77
2022-08-02T02:57:08.185Z,8.75
2022-08-02T02:59:49.364Z,8.83
2022-08-02T03:02:21.922Z,8.75
2022-08-02T03:04:55.840Z,8.73
2022-08-02T03:07:29.953Z,8.69
2022-08-02T03:10:00.621Z,8.73
2022-08-02T03:12:32.342Z,8.77
2022-08-02T03:15:07.884Z,8.78
2022-08-02T03:17:44.134Z,8.82
2022-08-02T03:20:17.298Z,8.86
2022-08-02T03:22:48.268Z,8.74
2022-08-02T03:25:19.804Z,8.78
2022-08-02T03:27:50.708Z,8.71
2022-08-02T03:30:25.684Z,8.62
2022-08-02T03:32:57.566Z,8.59
2022-08-02T03:35:27.533Z,8.57
2022-08-02T03:38:03.378Z,8.56
2022-08-02T03:40:33.718Z,8.57
2022-08-02T03:43:06.029Z,8.59
2022-08-02T03:45:36.357Z,8.69
2022-08-02T03:48:34.340Z,8.77
2022-08-02T03:51:01.956Z,8.81
2022-08-02T03:53:34.511Z,8.85
2022-08-02T03:56:04.085Z,8.88
2022-08-02T03:58:34.608Z,8.98
2022-08-02T04:01:08.349Z,9.09
2022-08-02T04:03:41.649Z,9.19
2022-08-02T04:06:13.463Z,9.31
2022-08-02T04:08:44.958Z,9.42
2022-08-02T04:11:32.272Z,9.52
2022-08-02T04:14:05.056Z,9.65
2022-08-02T04:16:44.008Z,9.77
2022-08-02T04:19:27.773Z,9.89
2022-08-02T04:22:00.040Z,9.99
2022-08-02T04:24:50.177Z,10.10
2022-08-02T04:28:15.633Z,10.24
2022-08-02T04:30:19.764Z,10.36
2022-08-02T04:32:49.261Z,10.50
2022-08-02T04:35:22.664Z,10.64
2022-08-02T04:38:09.860Z,10.78
2022-08-02T04:40:41.714Z,10.93
2022-08-02T04:43:11.127Z,11.07
2022-08-02T04:45:40.652Z,11.21
2022-08-02T04:48:10.244Z,11.36
2022-08-02T04:50:40.838Z,11.49
2022-08-02T04:53:09.764Z,11.65
2022-08-02T04:55:38.649Z,11.88
2022-08-02T04:58:37.031Z,12.10
2022-08-02T05:00:57.368Z,12.26
2022-08-02T05:03:26.537Z,12.37
2022-08-02T05:05:57.067Z,12.52
2022-08-02T05:08:26.383Z,12.65
2022-08-02T05:10:56.228Z,12.77
2022-08-02T05:13:26.036Z,12.89
2022-08-02T05:15:55.150Z,13.00
2022-08-02T05:18:24.377Z,13.14
2022-08-02T05:20:58.044Z,13.14
2022-08-02T05:23:28.987Z,13.33
2022-08-02T05:25:58.067Z,13.51
2022-08-02T05:28:27.725Z,13.70
2022-08-02T05:30:56.753Z,13.92
2022-08-02T05:33:25.857Z,14.21
2022-08-02T05:35:54.987Z,14.52
2022-08-02T05:38:26.142Z,14.72
2022-08-02T05:40:56.772Z,14.83
2022-08-02T05:43:25.594Z,15.38
2022-08-02T05:45:59.830Z,15.76
2022-08-02T05:48:32.037Z,16.56
2022-08-02T05:51:07.221Z,17.81
2022-08-02T05:53:49.292Z,18.69
2022-08-02T05:56:36.488Z,18.88
2022-08-02T05:59:13.465Z,19.38
2022-08-02T06:01:45.350Z,20.14
2022-08-02T06:04:25.158Z,20.91
2022-08-02T06:07:05.478Z,21.82
2022-08-02T06:09:41.883Z,22.74
2022-08-02T06:12:20.705Z,22.81
2022-08-02T06:14:54.526Z,23.21
2022-08-02T06:17:25.013Z,22.77
2022-08-02T06:19:58.938Z,22.39
2022-08-02T06:22:35.545Z,21.88
2022-08-02T06:25:48.460Z,21.68
2022-08-02T06:28:10.612Z,21.35
2022-08-02T06:30:46.254Z,20.59
2022-08-02T06:33:15.789Z,20.95
2022-08-02T06:36:04.267Z,21.10
2022-08-02T06:38:41.924Z,21.07
2022-08-02T06:41:20.987Z,21.53
2022-08-02T06:43:57.365Z,21.91
2022-08-02T06:46:54.390Z,22.83
2022-08-02T06:49:16.152Z,23.24
2022-08-02T06:51:45.209Z,24.07
2022-08-02T06:54:14.275Z,24.55
2022-08-02T06:56:43.431Z,25.00
2022-08-02T06:59:14.611Z,25.24
2022-08-02T07:01:44.712Z,24.99
2022-08-02T07:04:19.935Z,24.49
2022-08-02T07:06:53.181Z,23.39
2022-08-02T07:09:22.900Z,23.88
2022-08-02T07:11:52.673Z,23.98
2022-08-02T07:14:25.369Z,23.59
2022-08-02T07:16:57.548Z,22.71
2022-08-02T07:19:37.605Z,22.50
2022-08-02T07:22:10.322Z,23.88
2022-08-02T07:24:42.492Z,24.05
2022-08-02T07:27:12.991Z,25.44
2022-08-02T07:29:46.899Z,24.26
2022-08-02T07:32:17.226Z,23.64
2022-08-02T07:34:51.147Z,23.62
2022-08-02T07:37:35.657Z,24.62
2022-08-02T07:40:20.265Z,24.05
2022-08-02T07:42:56.512Z,23.14
2022-08-02T07:45:35.625Z,23.09
2022-08-02T07:48:08.795Z,23.69
2022-08-02T07:50:38.084Z,25.00
2022-08-02T07:53:10.144Z,25.09
2022-08-02T07:55:40.307Z,25.11
2022-08-02T07:58:12.791Z,24.71
2022-08-02T08:00:45.363Z,26.07
2022-08-02T08:03:14.625Z,26.66
2022-08-02T08:05:43.481Z,26.23
2022-08-02T08:08:17.339Z,26.50
2022-08-02T08:10:47.803Z,26.78
2022-08-02T08:13:16.908Z,25.67
2022-08-02T08:15:52.457Z,24.52
2022-08-02T08:18:23.809Z,26.17
2022-08-02T08:20:53.086Z,26.91
2022-08-02T08:23:22.185Z,25.67
2022-08-02T08:25:50.905Z,26.10
2022-08-02T08:28:20.301Z,26.61
2022-08-02T08:30:50.637Z,26.37
2022-08-02T08:33:19.669Z,26.66
2022-08-02T08:35:49.195Z,26.96
2022-08-02T08:38:18.576Z,27.08
2022-08-02T08:40:50.877Z,27.42
2022-08-02T08:43:20.366Z,27.41
2022-08-02T08:45:55.868Z,26.78
2022-08-02T08:48:31.004Z,28.39
2022-08-02T08:51:13.046Z,29.13
2022-08-02T08:53:47.101Z,27.75
2022-08-02T08:56:17.973Z,27.18
2022-08-02T08:58:49.068Z,25.10
2022-08-02T09:01:23.036Z,24.53
2022-08-02T09:03:52.350Z,25.38
2022-08-02T09:06:22.042Z,26.09
2022-08-02T09:08:51.785Z,26.64
2022-08-02T09:11:24.931Z,27.21
2022-08-02T09:13:56.832Z,27.47
2022-08-02T09:16:37.211Z,26.78
2022-08-02T09:19:20.477Z,27.43
2022-08-02T09:21:52.515Z,28.06
2022-08-02T09:24:24.989Z,28.22
2022-08-02T09:26:54.549Z,27.91
2022-08-02T09:29:26.112Z,28.20
2022-08-02T09:32:05.139Z,28.00
2022-08-02T09:34:50.783Z,29.38
2022-08-02T09:37:28.392Z,30.03
2022-08-02T09:40:00.835Z,29.55
2022-08-02T09:42:31.244Z,29.06
2022-08-02T09:45:03.285Z,29.96
2022-08-02T09:47:37.306Z,29.85
2022-08-02T09:50:11.040Z,28.73
2022-08-02T09:52:45.634Z,28.85
2022-08-02T09:55:14.923Z,28.93
2022-08-02T09:57:51.096Z,28.05
2022-08-02T10:00:31.898Z,28.06
2022-08-02T10:03:21.608Z,27.04
2022-08-02T10:05:55.941Z,27.00
2022-08-02T10:08:33.241Z,27.84
2022-08-02T10:11:04.192Z,28.23
2022-08-02T10:13:36.110Z,28.60
2022-08-02T10:16:07.635Z,28.32
2022-08-02T10:18:40.658Z,27.60
2022-08-02T10:21:27.081Z,26.54
2022-08-02T10:23:58.308Z,27.29
2022-08-02T10:26:28.535Z,27.72
2022-08-02T10:28:57.554Z,27.07
2022-08-02T10:31:37.923Z,26.64
2022-08-02T10:34:14.263Z,26.64
2022-08-02T10:36:44.929Z,26.98
2022-08-02T10:39:15.068Z,26.58
2022-08-02T10:41:47.629Z,27.02
2022-08-02T10:44:26.520Z,26.49
2022-08-02T10:47:28.304Z,26.81
2022-08-02T10:50:01.093Z,26.60
2022-08-02T10:52:32.287Z,26.38
2022-08-02T10:55:04.308Z,26.07
2022-08-02T10:57:48.725Z,26.18
2022-08-02T11:00:30.047Z,27.17
2022-08-02T11:02:59.361Z,26.36
2022-08-02T11:05:43.411Z,26.71
2022-08-02T11:08:22.265Z,27.06
2022-08-02T11:10:51.222Z,25.94
2022-08-02T11:13:21.279Z,26.11
2022-08-02T11:15:59.718Z,26.29
2022-08-02T11:19:06.543Z,26.69
2022-08-02T11:22:02.425Z,27.11
2022-08-02T11:24:33.726Z,27.02
2022-08-02T11:27:04.978Z,26.65
2022-08-02T11:29:39.629Z,26.54
2022-08-02T11:32:10.582Z,26.58
2022-08-02T11:34:42.134Z,26.70
2022-08-02T11:37:13.097Z,26.27
2022-08-02T11:39:42.500Z,26.26
2022-08-02T11:42:11.992Z,25.54
2022-08-02T11:44:46.795Z,26.12
2022-08-02T11:47:16.355Z,26.60
2022-08-02T11:49:45.689Z,27.18
2022-08-02T11:52:16.723Z,27.72
2022-08-02T11:54:46.091Z,28.64
2022-08-02T11:57:20.810Z,28.28
2022-08-02T11:59:56.767Z,27.93
2022-08-02T12:02:30.378Z,27.52
2022-08-02T12:05:02.819Z,27.49
2022-08-02T12:07:45.943Z,27.80
2022-08-02T12:10:19.039Z,27.40
2022-08-02T12:12:54.248Z,28.00
2022-08-02T12:15:35.967Z,27.34
2022-08-02T12:18:27.452Z,27.81
2022-08-02T12:20:57.245Z,28.10
2022-08-02T12:23:28.283Z,28.14
2022-08-02T12:26:07.074Z,27.90
2022-08-02T12:28:39.327Z,27.85
2022-08-02T12:31:10.856Z,28.33
2022-08-02T12:33:50.585Z,28.73
2022-08-02T12:36:21.957Z,28.72
2022-08-02T12:38:58.321Z,28.72
2022-08-02T12:41:32.584Z,28.13
2022-08-02T12:44:03.315Z,28.37
2022-08-02T12:46:35.699Z,28.50
2022-08-02T12:49:21.133Z,28.93
2022-08-02T12:51:57.555Z,28.91
2022-08-02T12:54:36.168Z,27.96
2022-08-02T12:57:13.374Z,27.08
2022-08-02T12:59:51.559Z,26.56
2022-08-02T13:02:23.765Z,27.27
2022-08-02T13:04:52.702Z,27.61
2022-08-02T13:07:21.712Z,28.23
2022-08-02T13:10:02.644Z,27.61
2022-08-02T13:12:34.752Z,28.22
2022-08-02T13:15:04.368Z,29.25
2022-08-02T13:17:43.241Z,29.99
2022-08-02T13:20:14.692Z,29.23
2022-08-02T13:22:51.386Z,28.58
2022-08-02T13:25:24.144Z,27.93
2022-08-02T13:27:54.391Z,27.34
2022-08-02T13:30:23.391Z,27.41
2022-08-02T13:32:52.254Z,27.78
2022-08-02T13:35:21.965Z,27.91
2022-08-02T13:37:51.973Z,27.76
2022-08-02T13:40:23.238Z,28.42
2022-08-02T13:42:52.251Z,28.21
2022-08-02T13:45:21.945Z,28.58
2022-08-02T13:48:04.349Z,28.57
2022-08-02T13:50:34.893Z,28.53
2022-08-02T13:53:32.383Z,29.06
2022-08-02T13:56:03.233Z,29.80
2022-08-02T13:58:36.504Z,28.75
2022-08-02T14:01:06.116Z,28.05
2022-08-02T14:04:08.257Z,27.99
2022-08-02T14:06:24.966Z,28.58
2022-08-02T14:08:56.648Z,29.31
2022-08-02T14:13:12.109Z,29.30
2022-08-02T14:15:47.970Z,28.76
2022-08-02T14:18:18.852Z,28.85
2022-08-02T14:20:49.020Z,28.75
2022-08-02T14:23:18.685Z,28.56
2022-08-02T14:26:14.166Z,28.94
2022-08-02T14:28:56.005Z,28.59
2022-08-02T14:31:26.742Z,29.10
2022-08-02T14:33:59.184Z,28.32
2022-08-02T14:36:29.436Z,28.05
2022-08-02T14:38:59.316Z,28.68
2022-08-02T14:41:28.454Z,28.61
2022-08-02T14:44:07.327Z,28.50
2022-08-02T14:46:41.845Z,28.45
2022-08-02T14:49:14.387Z,28.94
2022-08-02T14:51:54.396Z,28.74
2022-08-02T14:54:28.325Z,28.44
2022-08-02T14:57:01.208Z,27.86
2022-08-02T14:59:31.677Z,27.34
2022-08-02T15:02:02.526Z,27.11
2022-08-02T15:04:34.129Z,26.89
2022-08-02T15:07:10.183Z,26.68
2022-08-02T15:09:39.741Z,26.45
2022-08-02T15:12:11.429Z,26.90
2022-08-02T15:14:41.587Z,27.13
2022-08-02T15:17:12.470Z,27.42
2022-08-02T15:19:58.016Z,27.65
2022-08-02T15:22:30.122Z,27.36
2022-08-02T15:25:00.016Z,26.98
2022-08-02T15:27:31.592Z,26.40
2022-08-02T15:30:01.678Z,25.94
2022-08-02T15:32:34.922Z,25.65
2022-08-02T15:35:08.694Z,25.57
2022-08-02T15:37:41.372Z,25.45
2022-08-02T15:40:12.960Z,25.34
2022-08-02T15:42:43.792Z,25.32
2022-08-02T15:45:16.244Z,25.35
2022-08-02T15:47:48.290Z,25.53
2022-08-02T15:50:19.795Z,25.73
2022-08-02T15:52:48.857Z,25.86
2022-08-02T15:55:20.448Z,25.55
2022-08-02T15:57:49.715Z,25.18
2022-08-02T16:00:19.335Z,24.94
2022-08-02T16:02:50.222Z,24.95
2022-08-02T16:05:20.983Z,25.03
2022-08-02T16:07:50.173Z,25.01
2022-08-02T16:10:20.667Z,25.00
2022-08-02T16:12:50.585Z,24.96
2022-08-02T16:15:19.743Z,24.83
2022-08-02T16:17:53.769Z,24.75
2022-08-02T16:20:24.254Z,24.75
2022-08-02T16:22:53.140Z,24.74
2022-08-02T16:25:22.150Z,24.74
2022-08-02T16:28:07.230Z,24.68
2022-08-02T16:30:37.678Z,24.74
2022-08-02T16:33:08.883Z,24.81
2022-08-02T16:35:38.238Z,24.79
2022-08-02T16:38:09.955Z,24.74
2022-08-02T16:40:38.667Z,24.73
2022-08-02T16:43:09.261Z,24.81
2022-08-02T16:45:38.367Z,24.80
2022-08-02T16:48:10.876Z,24.82
2022-08-02T16:50:40.483Z,24.93
2022-08-02T16:53:37.356Z,25.14
2022-08-02T16:56:06.520Z,25.34
2022-08-02T16:58:35.675Z,25.57
2022-08-02T17:01:06.562Z,26.00
2022-08-02T17:03:56.009Z,26.18
2022-08-02T17:06:27.480Z,26.20
2022-08-02T17:08:57.124Z,26.26
2022-08-02T17:11:26.015Z,26.18
2022-08-02T17:14:01.048Z,25.99
2022-08-02T17:16:34.179Z,25.78
2022-08-02T17:19:07.356Z,25.63
2022-08-02T17:21:36.188Z,25.56
2022-08-02T17:24:08.264Z,25.54
2022-08-02T17:26:39.162Z,25.57
2022-08-02T17:29:17.973Z,25.50
2022-08-02T17:32:05.471Z,25.34
2022-08-02T17:34:40.247Z,25.20
2022-08-02T17:37:18.415Z,25.07
2022-08-02T17:39:51.917Z,24.85
2022-08-02T17:42:23.366Z,24.62
2022-08-02T17:44:54.671Z,24.39
2022-08-02T17:47:30.948Z,24.08
2022-08-02T17:50:01.473Z,23.64
2022-08-02T17:52:51.433Z,23.40
2022-08-02T17:55:22.586Z,23.19
2022-08-02T17:57:57.214Z,22.99
2022-08-02T18:00:34.535Z,22.81
2022-08-02T18:03:05.970Z,22.72
2022-08-02T18:05:53.741Z,22.56
2022-08-02T18:08:25.934Z,22.45
2022-08-02T18:10:57.357Z,22.35
2022-08-02T18:13:32.913Z,22.30
2022-08-02T18:16:05.343Z,22.27
2022-08-02T18:18:50.320Z,22.22
2022-08-02T18:21:22.824Z,22.20
2022-08-02T18:23:58.535Z,22.15
2022-08-02T18:26:29.020Z,22.06
2022-08-02T18:28:59.488Z,21.96
2022-08-02T18:31:28.762Z,21.93
2022-08-02T18:34:09.464Z,21.93
2022-08-02T18:36:47.047Z,21.77
2022-08-02T18:39:17.828Z,21.69
2022-08-02T18:41:48.060Z,21.64
2022-08-02T18:44:19.280Z,21.57
2022-08-02T18:46:50.497Z,21.41
2022-08-02T18:49:20.698Z,21.35
2022-08-02T18:51:51.918Z,21.32
2022-08-02T18:54:26.561Z,21.33
2022-08-02T18:57:00.976Z,21.30
2022-08-02T18:59:37.448Z,21.21
2022-08-02T19:02:06.804Z,21.05
2022-08-02T19:04:35.709Z,20.90
2022-08-02T19:07:08.186Z,20.89
2022-08-02T19:09:40.141Z,20.84
2022-08-02T19:12:12.114Z,20.77
2022-08-02T19:14:47.659Z,20.69
2022-08-02T19:17:55.147Z,20.54
2022-08-02T19:20:09.498Z,20.42
2022-08-02T19:22:41.313Z,20.41
2022-08-02T19:25:16.024Z,20.41
2022-08-02T19:27:47.291Z,20.40
2022-08-02T19:30:16.991Z,20.42
2022-08-02T19:32:58.706Z,20.30
2022-08-02T19:35:34.583Z,20.31
2022-08-02T19:38:13.001Z,20.32
2022-08-02T19:40:43.155Z,20.32
2022-08-02T19:44:21.980Z,20.13
2022-08-02T19:46:03.189Z,19.98
2022-08-02T19:48:41.112Z,19.96
2022-08-02T19:51:10.678Z,20.03
2022-08-02T19:53:47.539Z,20.00
2022-08-02T19:56:25.919Z,19.86
2022-08-02T19:58:58.055Z,19.86
2022-08-02T20:04:23.540Z,20.40
2022-08-02T20:06:58.141Z,20.39
2022-08-02T20:09:33.214Z,20.32
2022-08-02T20:12:16.659Z,20.34
2022-08-02T20:14:50.975Z,20.36
2022-08-02T20:17:21.347Z,20.32
2022-08-02T20:19:50.934Z,20.27
2022-08-02T20:22:21.289Z,20.30
2022-08-02T20:24:54.623Z,20.37
2022-08-02T20:27:30.257Z,20.19
2022-08-02T20:30:01.519Z,20.26
2022-08-02T20:32:30.936Z,20.34
2022-08-02T20:35:00.393Z,20.43
2022-08-02T20:37:59.343Z,20.51
2022-08-02T20:40:20.817Z,20.59
2022-08-02T20:42:49.747Z,20.53
2022-08-02T20:45:20.108Z,20.43
2022-08-02T20:47:52.517Z,20.35
2022-08-02T20:50:43.356Z,20.46
2022-08-02T20:53:23.775Z,20.62
2022-08-02T20:55:57.891Z,20.68
2022-08-02T20:58:28.036Z,20.70
2022-08-02T21:01:00.201Z,20.78
2022-08-02T21:03:38.833Z,20.83
2022-08-02T21:06:10.219Z,20.99
2022-08-02T21:08:46.228Z,21.03
2022-08-02T21:11:18.033Z,20.99
2022-08-02T21:14:06.549Z,20.97
2022-08-02T21:16:36.481Z,20.92
2022-08-02T21:19:09.765Z,20.83
2022-08-02T21:21:39.994Z,20.80
2022-08-02T21:24:12.342Z,20.75
2022-08-02T21:26:43.019Z,20.73
2022-08-02T21:29:17.619Z,20.68
2022-08-02T21:31:46.897Z,20.65
2022-08-02T21:34:22.586Z,20.58
2022-08-02T21:36:56.625Z,20.55
2022-08-02T21:39:28.050Z,20.49
2022-08-02T21:42:02.031Z,20.48
2022-08-02T21:44:37.585Z,20.44
2022-08-02T21:47:14.578Z,20.45
2022-08-02T21:50:13.239Z,20.44
2022-08-02T21:52:37.962Z,20.43
2022-08-02T21:55:14.979Z,20.41
2022-08-02T21:57:45.868Z,20.38
2022-08-02T22:00:28.213Z,20.37
2022-08-02T22:02:58.150Z,20.35
2022-08-02T22:05:28.644Z,20.35
2022-08-02T22:08:07.638Z,20.35
2022-08-02T22:10:55.358Z,20.36
2022-08-02T22:13:25.926Z,20.37
2022-08-02T22:16:08.114Z,20.37
2022-08-02T22:18:37.743Z,20.30
2022-08-02T22:21:13.992Z,20.27
2022-08-02T22:23:51.251Z,20.23
2022-08-02T22:26:24.307Z,20.28
2022-08-02T22:28:59.680Z,20.30
2022-08-02T22:31:40.823Z,20.32
2022-08-02T22:34:11.590Z,20.33
2022-08-02T22:36:56.155Z,20.33
2022-08-02T22:39:26.151Z,20.28
2022-08-02T22:42:05.900Z,20.20
2022-08-02T22:44:46.124Z,20.09
2022-08-02T22:47:15.297Z,19.96
2022-08-02T22:49:53.019Z,19.90
2022-08-02T22:52:24.057Z,19.88
2022-08-02T22:54:57.048Z,19.87
2022-08-02T22:57:30.898Z,19.86
2022-08-02T22:58:54.159Z,19.90
2022-08-02T23:00:04.501Z,19.85
2022-08-02T23:02:33.523Z,19.93
2022-08-02T23:05:02.467Z,19.94
2022-08-02T23:07:36.191Z,19.93
2022-08-02T23:10:11.211Z,19.89
2022-08-02T23:12:40.953Z,19.89
2022-08-02T23:15:13.622Z,19.88
2022-08-02T23:18:01.217Z,19.84
2022-08-02T23:20:30.796Z,19.81
2022-08-02T23:23:00.374Z,19.78
2022-08-02T23:25:29.046Z,19.75
2022-08-02T23:28:00.538Z,19.73
2022-08-02T23:30:32.181Z,19.74
2022-08-02T23:33:04.714Z,19.74
2022-08-02T23:35:35.683Z,19.75
2022-08-02T23:38:05.294Z,19.76
2022-08-02T23:40:40.285Z,19.75
2022-08-02T23:43:14.800Z,19.74
2022-08-02T23:45:46.927Z,19.75
2022-08-02T23:48:17.585Z,19.76
2022-08-02T23:50:49.846Z,19.75
2022-08-02T23:53:23.919Z,19.75
2022-08-02T23:55:58.256Z,19.75
2022-08-02T23:58:28.658Z,19.72
